sensor_id;sensor_type;location;lat;lon;timestamp;temperature;humidity
55016;DHT22;40919;43.236;21.590;2022-11-15T00:00:53;204.90;2252.80
55016;DHT22;40919;43.236;21.590;2022-11-15T00:03:22;205.00;2252.80
55016;DHT22;40919;43.236;21.590;2022-11-15T00:05:48;205.10;2252.80
55016;DHT22;40919;43.236;21.590;2022-11-15T00:08:14;205.00;2252.80
55016;DHT22;40919;43.236;21.590;2022-11-15T00:10:40;205.10;2252.80
55016;DHT22;40919;43.236;21.590;2022-11-15T00:13:11;204.80;2252.80
55016;DHT22;40919;43.236;21.590;2022-11-15T00:15:38;205.00;2252.80
55016;DHT22;40919;43.236;21.590;2022-11-15T00:18:06;205.00;2252.80
55016;DHT22;40919;43.236;21.590;2022-11-15T00:20:36;205.20;2252.80
55016;DHT22;40919;43.236;21.590;2022-11-15T00:23:04;205.10;2252.80
55016;DHT22;40919;43.236;21.590;2022-11-15T00:25:30;205.10;2252.80
55016;DHT22;40919;43.236;21.590;2022-11-15T00:27:59;204.80;2252.80
55016;DHT22;40919;43.236;21.590;2022-11-15T00:30:26;204.80;2252.80
55016;DHT22;40919;43.236;21.590;2022-11-15T00:32:52;204.90;2252.80
55016;DHT22;40919;43.236;21.590;2022-11-15T00:35:18;180.10;2252.80
55016;DHT22;40919;43.236;21.590;2022-11-15T00:37:44;204.80;2252.80
55016;DHT22;40919;43.236;21.590;2022-11-15T00:40:11;180.00;2252.80
55016;DHT22;40919;43.236;21.590;2022-11-15T00:42:38;180.10;2252.80
55016;DHT22;40919;43.236;21.590;2022-11-15T00:45:04;179.80;2252.80
55016;DHT22;40919;43.236;21.590;2022-11-15T00:47:30;179.90;2252.80
55016;DHT22;40919;43.236;21.590;2022-11-15T00:49:56;179.60;2252.80
55016;DHT22;40919;43.236;21.590;2022-11-15T00:52:22;179.80;2252.80
55016;DHT22;40919;43.236;21.590;2022-11-15T00:54:48;179.90;2252.80
55016;DHT22;40919;43.236;21.590;2022-11-15T00:57:14;179.70;2252.80
55016;DHT22;40919;43.236;21.590;2022-11-15T00:59:39;179.70;2252.80
55016;DHT22;40919;43.236;21.590;2022-11-15T01:02:05;179.60;2252.80
55016;DHT22;40919;43.236;21.590;2022-11-15T01:04:31;179.70;2252.80
55016;DHT22;40919;43.236;21.590;2022-11-15T01:06:57;179.70;2252.80
55016;DHT22;40919;43.236;21.590;2022-11-15T01:09:22;179.60;2252.80
55016;DHT22;40919;43.236;21.590;2022-11-15T01:11:48;179.70;2252.80
55016;DHT22;40919;43.236;21.590;2022-11-15T01:14:14;179.70;2252.80
55016;DHT22;40919;43.236;21.590;2022-11-15T01:16:40;179.70;2252.80
55016;DHT22;40919;43.236;21.590;2022-11-15T01:19:06;179.60;2252.80
55016;DHT22;40919;43.236;21.590;2022-11-15T01:21:31;179.40;2252.80
55016;DHT22;40919;43.236;21.590;2022-11-15T01:46:33;179.50;2252.80
55016;DHT22;40919;43.236;21.590;2022-11-15T01:49:10;179.40;2252.80
55016;DHT22;40919;43.236;21.590;2022-11-15T01:54:07;154.30;2252.80
55016;DHT22;40919;43.236;21.590;2022-11-15T01:56:38;154.40;2252.80
55016;DHT22;40919;43.236;21.590;2022-11-15T01:59:06;154.40;2252.80
55016;DHT22;40919;43.236;21.590;2022-11-15T02:01:33;154.50;2252.80
55016;DHT22;40919;43.236;21.590;2022-11-15T02:06:31;154.50;2252.80
55016;DHT22;40919;43.236;21.590;2022-11-15T02:08:59;154.20;2252.80
55016;DHT22;40919;43.236;21.590;2022-11-15T02:11:26;154.50;2252.80
55016;DHT22;40919;43.236;21.590;2022-11-15T02:13:52;154.50;2252.80
55016;DHT22;40919;43.236;21.590;2022-11-15T02:22:37;154.10;2252.80
55016;DHT22;40919;43.236;21.590;2022-11-15T02:31:04;154.00;2252.80
55016;DHT22;40919;43.236;21.590;2022-11-15T02:47:24;154.10;2252.80
55016;DHT22;40919;43.236;21.590;2022-11-15T02:49:55;153.90;2252.80
55016;DHT22;40919;43.236;21.590;2022-11-15T03:11:08;128.80;2252.80
55016;DHT22;40919;43.236;21.590;2022-11-15T03:13:38;128.60;2252.80
55016;DHT22;40919;43.236;21.590;2022-11-15T03:18:43;153.60;2252.80
55016;DHT22;40919;43.236;21.590;2022-11-15T03:21:12;153.80;2252.80
55016;DHT22;40919;43.236;21.590;2022-11-15T03:23:40;128.90;2252.80
55016;DHT22;40919;43.236;21.590;2022-11-15T03:26:12;128.90;2252.80
55016;DHT22;40919;43.236;21.590;2022-11-15T03:28:46;128.70;2252.80
55016;DHT22;40919;43.236;21.590;2022-11-15T03:31:16;128.50;2252.80
55016;DHT22;40919;43.236;21.590;2022-11-15T06:02:49;153.80;2252.80
55016;DHT22;40919;43.236;21.590;2022-11-15T06:10:07;153.90;2252.80
55016;DHT22;40919;43.236;21.590;2022-11-15T06:12:33;153.80;2252.80
55016;DHT22;40919;43.236;21.590;2022-11-15T06:14:59;153.80;2252.80
55016;DHT22;40919;43.236;21.590;2022-11-15T06:17:24;153.80;2252.80
55016;DHT22;40919;43.236;21.590;2022-11-15T06:19:50;153.80;2252.80
55016;DHT22;40919;43.236;21.590;2022-11-15T06:22:16;153.80;2252.80
55016;DHT22;40919;43.236;21.590;2022-11-15T06:24:42;153.80;2252.80
55016;DHT22;40919;43.236;21.590;2022-11-15T06:27:10;153.80;2252.80
55016;DHT22;40919;43.236;21.590;2022-11-15T06:29:36;153.80;2252.80
55016;DHT22;40919;43.236;21.590;2022-11-15T06:32:02;153.80;2252.80
55016;DHT22;40919;43.236;21.590;2022-11-15T06:34:28;153.80;2252.80
55016;DHT22;40919;43.236;21.590;2022-11-15T06:36:53;153.70;2252.80
55016;DHT22;40919;43.236;21.590;2022-11-15T06:39:19;153.80;2252.80
55016;DHT22;40919;43.236;21.590;2022-11-15T06:41:46;153.70;2252.80
55016;DHT22;40919;43.236;21.590;2022-11-15T06:44:11;153.80;2252.80
55016;DHT22;40919;43.236;21.590;2022-11-15T06:46:37;153.90;2252.80
55016;DHT22;40919;43.236;21.590;2022-11-15T06:51:29;154.00;2252.80
55016;DHT22;40919;43.236;21.590;2022-11-15T06:53:55;153.90;2252.80
55016;DHT22;40919;43.236;21.590;2022-11-15T06:56:20;153.80;2252.80
55016;DHT22;40919;43.236;21.590;2022-11-15T06:58:46;154.00;2252.80
55016;DHT22;40919;43.236;21.590;2022-11-15T07:03:41;154.20;2252.80
55016;DHT22;40919;43.236;21.590;2022-11-15T07:06:08;153.90;2252.80
55016;DHT22;40919;43.236;21.590;2022-11-15T07:08:35;154.30;2252.80
55016;DHT22;40919;43.236;21.590;2022-11-15T07:11:03;154.10;2252.80
55016;DHT22;40919;43.236;21.590;2022-11-15T07:13:31;154.10;2252.80
55016;DHT22;40919;43.236;21.590;2022-11-15T07:16:01;154.20;2252.80
55016;DHT22;40919;43.236;21.590;2022-11-15T07:18:27;154.10;2252.80
55016;DHT22;40919;43.236;21.590;2022-11-15T07:20:53;154.30;2252.80
55016;DHT22;40919;43.236;21.590;2022-11-15T07:23:18;154.50;2252.80
55016;DHT22;40919;43.236;21.590;2022-11-15T07:25:44;154.20;2252.80
55016;DHT22;40919;43.236;21.590;2022-11-15T07:28:10;154.00;2252.80
55016;DHT22;40919;43.236;21.590;2022-11-15T07:30:36;154.40;2252.80
55016;DHT22;40919;43.236;21.590;2022-11-15T07:33:01;154.40;2252.80
55016;DHT22;40919;43.236;21.590;2022-11-15T07:35:28;154.40;2252.80
55016;DHT22;40919;43.236;21.590;2022-11-15T07:37:56;154.50;2252.80
55016;DHT22;40919;43.236;21.590;2022-11-15T07:40:22;154.50;2252.80
55016;DHT22;40919;43.236;21.590;2022-11-15T07:42:48;154.40;2252.80
55016;DHT22;40919;43.236;21.590;2022-11-15T07:45:23;154.50;2252.80
55016;DHT22;40919;43.236;21.590;2022-11-15T07:47:52;179.20;2252.80
55016;DHT22;40919;43.236;21.590;2022-11-15T07:50:18;179.40;2252.80
55016;DHT22;40919;43.236;21.590;2022-11-15T07:52:45;179.60;2252.80
55016;DHT22;40919;43.236;21.590;2022-11-15T07:55:11;179.60;2252.80
55016;DHT22;40919;43.236;21.590;2022-11-15T07:57:37;180.00;2252.80
55016;DHT22;40919;43.236;21.590;2022-11-15T08:00:04;179.70;2252.80
55016;DHT22;40919;43.236;21.590;2022-11-15T08:02:30;179.70;2252.80
55016;DHT22;40919;43.236;21.590;2022-11-15T08:04:56;179.80;2252.80
55016;DHT22;40919;43.236;21.590;2022-11-15T08:07:22;180.10;2252.80
55016;DHT22;40919;43.236;21.590;2022-11-15T08:09:48;180.10;2252.80
55016;DHT22;40919;43.236;21.590;2022-11-15T08:12:14;204.80;2252.80
55016;DHT22;40919;43.236;21.590;2022-11-15T08:14:40;180.10;2252.80
55016;DHT22;40919;43.236;21.590;2022-11-15T08:17:06;204.80;2252.80
55016;DHT22;40919;43.236;21.590;2022-11-15T08:19:31;180.10;2252.80
55016;DHT22;40919;43.236;21.590;2022-11-15T08:21:58;204.80;2252.80
55016;DHT22;40919;43.236;21.590;2022-11-15T08:24:23;204.90;2252.80
55016;DHT22;40919;43.236;21.590;2022-11-15T08:26:49;204.90;2252.80
55016;DHT22;40919;43.236;21.590;2022-11-15T08:29:15;205.10;2252.80
55016;DHT22;40919;43.236;21.590;2022-11-15T08:31:40;205.10;2252.80
55016;DHT22;40919;43.236;21.590;2022-11-15T08:34:06;205.10;2252.80
55016;DHT22;40919;43.236;21.590;2022-11-15T08:36:32;205.20;2252.80
55016;DHT22;40919;43.236;21.590;2022-11-15T08:38:58;205.30;2252.80
55016;DHT22;40919;43.236;21.590;2022-11-15T08:41:33;205.40;2252.80
55016;DHT22;40919;43.236;21.590;2022-11-15T08:43:59;205.40;2252.80
55016;DHT22;40919;43.236;21.590;2022-11-15T08:46:25;205.50;2252.80
55016;DHT22;40919;43.236;21.590;2022-11-15T08:48:51;205.60;2252.80
55016;DHT22;40919;43.236;21.590;2022-11-15T08:51:16;205.60;2252.80
55016;DHT22;40919;43.236;21.590;2022-11-15T08:53:42;205.70;2252.80
55016;DHT22;40919;43.236;21.590;2022-11-15T08:56:10;230.40;2252.80
55016;DHT22;40919;43.236;21.590;2022-11-15T08:58:36;230.50;2252.80
55016;DHT22;40919;43.236;21.590;2022-11-15T09:01:03;230.60;2252.80
55016;DHT22;40919;43.236;21.590;2022-11-15T09:03:30;230.50;2252.80
55016;DHT22;40919;43.236;21.590;2022-11-15T09:05:57;230.70;2252.80
55016;DHT22;40919;43.236;21.590;2022-11-15T09:08:23;230.60;2252.80
55016;DHT22;40919;43.236;21.590;2022-11-15T09:10:50;230.60;2252.80
55016;DHT22;40919;43.236;21.590;2022-11-15T09:13:16;230.60;2252.80
55016;DHT22;40919;43.236;21.590;2022-11-15T09:15:42;230.90;2252.80
55016;DHT22;40919;43.236;21.590;2022-11-15T09:18:07;231.00;2252.80
55016;DHT22;40919;43.236;21.590;2022-11-15T09:20:33;231.10;2252.80
55016;DHT22;40919;43.236;21.590;2022-11-15T09:23:03;231.20;2252.80
55016;DHT22;40919;43.236;21.590;2022-11-15T09:25:29;231.30;2252.80
55016;DHT22;40919;43.236;21.590;2022-11-15T09:27:56;256.00;2252.80
55016;DHT22;40919;43.236;21.590;2022-11-15T09:30:23;256.10;2252.80
55016;DHT22;40919;43.236;21.590;2022-11-15T09:32:49;256.10;2252.80
55016;DHT22;40919;43.236;21.590;2022-11-15T09:35:15;256.20;2252.80
55016;DHT22;40919;43.236;21.590;2022-11-15T09:37:41;256.10;2252.80
55016;DHT22;40919;43.236;21.590;2022-11-15T09:40:11;256.30;2252.80
55016;DHT22;40919;43.236;21.590;2022-11-15T09:45:23;256.50;2252.80
55016;DHT22;40919;43.236;21.590;2022-11-15T09:48:25;256.60;2252.80
55016;DHT22;40919;43.236;21.590;2022-11-15T09:50:57;256.80;2252.80
55016;DHT22;40919;43.236;21.590;2022-11-15T09:53:36;256.90;2252.80
55016;DHT22;40919;43.236;21.590;2022-11-15T09:56:17;256.90;2252.80
55016;DHT22;40919;43.236;21.590;2022-11-15T10:01:57;281.60;2278.40
55016;DHT22;40919;43.236;21.590;2022-11-15T10:04:27;281.80;2278.40
55016;DHT22;40919;43.236;21.590;2022-11-15T10:07:04;281.80;2278.40
55016;DHT22;40919;43.236;21.590;2022-11-15T10:09:51;281.90;2278.40
55016;DHT22;40919;43.236;21.590;2022-11-15T10:12:18;282.00;2278.40
55016;DHT22;40919;43.236;21.590;2022-11-15T10:14:45;282.10;2278.40
55016;DHT22;40919;43.236;21.590;2022-11-15T10:22:44;282.40;2278.40
55016;DHT22;40919;43.236;21.590;2022-11-15T10:25:17;282.50;2278.40
55016;DHT22;40919;43.236;21.590;2022-11-15T10:27:45;307.20;2304.00
55016;DHT22;40919;43.236;21.590;2022-11-15T10:30:16;307.20;2304.00
55016;DHT22;40919;43.236;21.590;2022-11-15T10:32:43;307.30;2304.00
55016;DHT22;40919;43.236;21.590;2022-11-15T10:35:27;307.40;2304.00
55016;DHT22;40919;43.236;21.590;2022-11-15T10:38:05;307.50;2304.00
55016;DHT22;40919;43.236;21.590;2022-11-15T10:40:31;307.50;2304.00
55016;DHT22;40919;43.236;21.590;2022-11-15T10:43:16;307.50;2304.00
55016;DHT22;40919;43.236;21.590;2022-11-15T10:45:43;307.50;2304.00
55016;DHT22;40919;43.236;21.590;2022-11-15T10:50:45;307.60;2304.00
55016;DHT22;40919;43.236;21.590;2022-11-15T10:53:24;307.60;2304.00
55016;DHT22;40919;43.236;21.590;2022-11-15T10:55:54;307.60;2304.00
55016;DHT22;40919;43.236;21.590;2022-11-15T10:58:37;307.70;2304.00
55016;DHT22;40919;43.236;21.590;2022-11-15T11:01:15;307.70;2304.00
55016;DHT22;40919;43.236;21.590;2022-11-15T11:03:43;307.60;2304.00
55016;DHT22;40919;43.236;21.590;2022-11-15T11:06:18;307.60;2304.00
55016;DHT22;40919;43.236;21.590;2022-11-15T11:09:05;307.70;2304.00
55016;DHT22;40919;43.236;21.590;2022-11-15T11:11:48;307.70;2304.00
55016;DHT22;40919;43.236;21.590;2022-11-15T11:14:38;308.00;2304.00
55016;DHT22;40919;43.236;21.590;2022-11-15T11:23:02;307.90;2304.00
55016;DHT22;40919;43.236;21.590;2022-11-15T11:25:44;308.00;2304.00
55016;DHT22;40919;43.236;21.590;2022-11-15T11:33:57;308.10;2304.00
55016;DHT22;40919;43.236;21.590;2022-11-15T11:36:29;308.10;2304.00
55016;DHT22;40919;43.236;21.590;2022-11-15T11:48:00;333.10;2329.60
55016;DHT22;40919;43.236;21.590;2022-11-15T11:50:28;333.10;2329.60
55016;DHT22;40919;43.236;21.590;2022-11-15T11:53:14;333.10;2329.60
55016;DHT22;40919;43.236;21.590;2022-11-15T11:55:46;333.20;2329.60
55016;DHT22;40919;43.236;21.590;2022-11-15T11:58:21;333.20;2329.60
55016;DHT22;40919;43.236;21.590;2022-11-15T12:00:57;333.40;2329.60
55016;DHT22;40919;43.236;21.590;2022-11-15T12:03:44;333.50;2329.60
55016;DHT22;40919;43.236;21.590;2022-11-15T12:06:37;333.60;2329.60
55016;DHT22;40919;43.236;21.590;2022-11-15T12:09:13;333.70;2329.60
55016;DHT22;40919;43.236;21.590;2022-11-15T12:14:51;333.70;2329.60
55016;DHT22;40919;43.236;21.590;2022-11-15T12:17:24;333.70;2329.60
55016;DHT22;40919;43.236;21.590;2022-11-15T12:19:52;333.70;2329.60
55016;DHT22;40919;43.236;21.590;2022-11-15T12:30:44;358.40;2329.60
55016;DHT22;40919;43.236;21.590;2022-11-15T12:38:55;358.60;2329.60
55016;DHT22;40919;43.236;21.590;2022-11-15T12:41:23;358.60;2329.60
55016;DHT22;40919;43.236;21.590;2022-11-15T12:43:50;358.50;2329.60
55016;DHT22;40919;43.236;21.590;2022-11-15T12:47:04;359.00;2329.60
55016;DHT22;40919;43.236;21.590;2022-11-15T12:59:55;358.60;2329.60
55016;DHT22;40919;43.236;21.590;2022-11-15T13:02:35;358.70;2329.60
55016;DHT22;40919;43.236;21.590;2022-11-15T13:07:57;358.60;2329.60
55016;DHT22;40919;43.236;21.590;2022-11-15T13:18:38;358.60;2329.60
55016;DHT22;40919;43.236;21.590;2022-11-15T13:21:19;358.60;2329.60
55016;DHT22;40919;43.236;21.590;2022-11-15T13:24:14;358.60;2329.60
55016;DHT22;40919;43.236;21.590;2022-11-15T13:26:41;358.60;2329.60
55016;DHT22;40919;43.236;21.590;2022-11-15T13:29:18;358.60;2329.60
55016;DHT22;40919;43.236;21.590;2022-11-15T13:31:44;358.50;2329.60
55016;DHT22;40919;43.236;21.590;2022-11-15T13:34:32;358.50;2329.60
55016;DHT22;40919;43.236;21.590;2022-11-15T13:37:03;358.60;2329.60
55016;DHT22;40919;43.236;21.590;2022-11-15T13:39:31;358.50;2329.60
55016;DHT22;40919;43.236;21.590;2022-11-15T13:41:58;358.50;2329.60
55016;DHT22;40919;43.236;21.590;2022-11-15T13:44:27;358.50;2329.60
55016;DHT22;40919;43.236;21.590;2022-11-15T13:47:26;358.50;2329.60
55016;DHT22;40919;43.236;21.590;2022-11-15T13:49:53;358.50;2329.60
55016;DHT22;40919;43.236;21.590;2022-11-15T13:52:19;358.50;2329.60
55016;DHT22;40919;43.236;21.590;2022-11-15T13:54:47;358.50;2329.60
55016;DHT22;40919;43.236;21.590;2022-11-15T13:57:22;358.50;2329.60
55016;DHT22;40919;43.236;21.590;2022-11-15T13:59:54;358.50;2329.60
55016;DHT22;40919;43.236;21.590;2022-11-15T14:02:40;358.50;2329.60
55016;DHT22;40919;43.236;21.590;2022-11-15T14:05:18;358.40;2329.60
55016;DHT22;40919;43.236;21.590;2022-11-15T14:10:31;358.40;2329.60
55016;DHT22;40919;43.236;21.590;2022-11-15T14:12:58;358.40;2329.60
55016;DHT22;40919;43.236;21.590;2022-11-15T14:15:37;358.40;2329.60
55016;DHT22;40919;43.236;21.590;2022-11-15T14:18:04;333.70;2329.60
55016;DHT22;40919;43.236;21.590;2022-11-15T14:20:36;333.70;2329.60
55016;DHT22;40919;43.236;21.590;2022-11-15T14:25:56;333.70;2329.60
55016;DHT22;40919;43.236;21.590;2022-11-15T14:30:48;333.70;2329.60
55016;DHT22;40919;43.236;21.590;2022-11-15T14:35:51;333.70;2329.60
55016;DHT22;40919;43.236;21.590;2022-11-15T14:38:16;333.70;2329.60
55016;DHT22;40919;43.236;21.590;2022-11-15T14:40:43;333.70;2329.60
55016;DHT22;40919;43.236;21.590;2022-11-15T14:43:10;333.70;2329.60
55016;DHT22;40919;43.236;21.590;2022-11-15T14:45:36;333.70;2329.60
55016;DHT22;40919;43.236;21.590;2022-11-15T14:48:02;333.60;2329.60
55016;DHT22;40919;43.236;21.590;2022-11-15T14:50:29;333.70;2329.60
55016;DHT22;40919;43.236;21.590;2022-11-15T14:52:55;333.60;2329.60
55016;DHT22;40919;43.236;21.590;2022-11-15T14:55:22;333.60;2329.60
55016;DHT22;40919;43.236;21.590;2022-11-15T14:57:48;333.60;2329.60
55016;DHT22;40919;43.236;21.590;2022-11-15T15:00:15;333.60;2329.60
55016;DHT22;40919;43.236;21.590;2022-11-15T15:02:43;333.60;2329.60
55016;DHT22;40919;43.236;21.590;2022-11-15T15:05:15;333.60;2329.60
55016;DHT22;40919;43.236;21.590;2022-11-15T15:07:42;333.50;2329.60
55016;DHT22;40919;43.236;21.590;2022-11-15T15:10:08;333.50;2329.60
55016;DHT22;40919;43.236;21.590;2022-11-15T15:12:34;333.40;2329.60
55016;DHT22;40919;43.236;21.590;2022-11-15T15:14:59;333.40;2329.60
55016;DHT22;40919;43.236;21.590;2022-11-15T15:17:25;333.30;2329.60
55016;DHT22;40919;43.236;21.590;2022-11-15T15:19:51;333.30;2329.60
55016;DHT22;40919;43.236;21.590;2022-11-15T15:22:18;333.20;2329.60
55016;DHT22;40919;43.236;21.590;2022-11-15T15:24:45;333.20;2329.60
55016;DHT22;40919;43.236;21.590;2022-11-15T15:27:12;333.10;2329.60
55016;DHT22;40919;43.236;21.590;2022-11-15T15:29:38;333.10;2329.60
55016;DHT22;40919;43.236;21.590;2022-11-15T15:32:04;333.00;2329.60
55016;DHT22;40919;43.236;21.590;2022-11-15T15:37:23;333.10;2329.60
55016;DHT22;40919;43.236;21.590;2022-11-15T15:39:54;332.90;2329.60
55016;DHT22;40919;43.236;21.590;2022-11-15T15:42:20;332.80;2329.60
55016;DHT22;40919;43.236;21.590;2022-11-15T15:44:47;308.10;2304.00
55016;DHT22;40919;43.236;21.590;2022-11-15T15:47:21;308.10;2304.00
55016;DHT22;40919;43.236;21.590;2022-11-15T15:49:48;307.90;2304.00
55016;DHT22;40919;43.236;21.590;2022-11-15T15:52:15;307.90;2304.00
55016;DHT22;40919;43.236;21.590;2022-11-15T15:54:41;307.80;2304.00
55016;DHT22;40919;43.236;21.590;2022-11-15T16:07:00;307.80;2304.00
55016;DHT22;40919;43.236;21.590;2022-11-15T16:09:27;307.60;2304.00
55016;DHT22;40919;43.236;21.590;2022-11-15T16:12:11;307.50;2304.00
55016;DHT22;40919;43.236;21.590;2022-11-15T16:26:48;307.50;2304.00
55016;DHT22;40919;43.236;21.590;2022-11-15T16:29:15;307.30;2304.00
55016;DHT22;40919;43.236;21.590;2022-11-15T16:31:41;307.20;2304.00
55016;DHT22;40919;43.236;21.590;2022-11-15T16:34:06;307.20;2304.00
55016;DHT22;40919;43.236;21.590;2022-11-15T16:36:34;307.20;2304.00
55016;DHT22;40919;43.236;21.590;2022-11-15T16:39:00;282.40;2278.40
55016;DHT22;40919;43.236;21.590;2022-11-15T16:41:29;282.40;2278.40
55016;DHT22;40919;43.236;21.590;2022-11-15T16:43:55;282.40;2278.40
55016;DHT22;40919;43.236;21.590;2022-11-15T16:46:27;282.30;2278.40
55016;DHT22;40919;43.236;21.590;2022-11-15T16:48:54;282.20;2278.40
55016;DHT22;40919;43.236;21.590;2022-11-15T16:51:21;282.10;2278.40
55016;DHT22;40919;43.236;21.590;2022-11-15T16:53:46;282.20;2278.40
55016;DHT22;40919;43.236;21.590;2022-11-15T16:59:14;282.20;2278.40
55016;DHT22;40919;43.236;21.590;2022-11-15T17:01:41;282.10;2278.40
55016;DHT22;40919;43.236;21.590;2022-11-15T17:04:18;281.90;2278.40
55016;DHT22;40919;43.236;21.590;2022-11-15T17:33:54;281.90;2278.40
55016;DHT22;40919;43.236;21.590;2022-11-15T17:36:22;281.70;2278.40
55016;DHT22;40919;43.236;21.590;2022-11-15T17:38:48;281.70;2278.40
55016;DHT22;40919;43.236;21.590;2022-11-15T17:41:17;281.70;2278.40
55016;DHT22;40919;43.236;21.590;2022-11-15T17:56:06;281.70;2278.40
55016;DHT22;40919;43.236;21.590;2022-11-15T17:58:32;281.60;2278.40
55016;DHT22;40919;43.236;21.590;2022-11-15T18:01:15;256.90;2252.80
55016;DHT22;40919;43.236;21.590;2022-11-15T18:03:41;281.60;2278.40
55016;DHT22;40919;43.236;21.590;2022-11-15T18:06:07;256.90;2252.80
55016;DHT22;40919;43.236;21.590;2022-11-15T18:08:39;256.90;2252.80
55016;DHT22;40919;43.236;21.590;2022-11-15T18:11:15;256.90;2252.80
55016;DHT22;40919;43.236;21.590;2022-11-15T18:13:44;256.80;2252.80
55016;DHT22;40919;43.236;21.590;2022-11-15T18:16:16;256.90;2252.80
55016;DHT22;40919;43.236;21.590;2022-11-15T18:18:42;256.80;2252.80
55016;DHT22;40919;43.236;21.590;2022-11-15T18:21:17;256.90;2252.80
55016;DHT22;40919;43.236;21.590;2022-11-15T18:23:44;256.90;2252.80
55016;DHT22;40919;43.236;21.590;2022-11-15T18:26:12;256.90;2252.80
55016;DHT22;40919;43.236;21.590;2022-11-15T18:28:41;256.80;2252.80
55016;DHT22;40919;43.236;21.590;2022-11-15T18:33:40;256.80;2252.80
55016;DHT22;40919;43.236;21.590;2022-11-15T18:36:10;256.70;2252.80
55016;DHT22;40919;43.236;21.590;2022-11-15T18:38:37;256.80;2252.80
55016;DHT22;40919;43.236;21.590;2022-11-15T18:41:07;256.90;2252.80
55016;DHT22;40919;43.236;21.590;2022-11-15T18:43:33;256.80;2252.80
55016;DHT22;40919;43.236;21.590;2022-11-15T18:46:19;256.80;2252.80
55016;DHT22;40919;43.236;21.590;2022-11-15T18:48:47;256.90;2252.80
55016;DHT22;40919;43.236;21.590;2022-11-15T18:51:17;256.90;2252.80
55016;DHT22;40919;43.236;21.590;2022-11-15T18:53:43;281.60;2278.40
55016;DHT22;40919;43.236;21.590;2022-11-15T18:56:14;281.60;2278.40
55016;DHT22;40919;43.236;21.590;2022-11-15T18:58:43;281.60;2278.40
55016;DHT22;40919;43.236;21.590;2022-11-15T19:01:14;256.90;2252.80
55016;DHT22;40919;43.236;21.590;2022-11-15T19:03:42;256.80;2252.80
55016;DHT22;40919;43.236;21.590;2022-11-15T19:08:42;256.80;2252.80
55016;DHT22;40919;43.236;21.590;2022-11-15T19:11:38;256.90;2252.80
55016;DHT22;40919;43.236;21.590;2022-11-15T19:14:09;256.90;2252.80
55016;DHT22;40919;43.236;21.590;2022-11-15T19:16:38;281.60;2278.40
55016;DHT22;40919;43.236;21.590;2022-11-15T19:19:07;281.60;2278.40
55016;DHT22;40919;43.236;21.590;2022-11-15T19:21:34;256.90;2252.80
55016;DHT22;40919;43.236;21.590;2022-11-15T19:24:00;256.80;2252.80
55016;DHT22;40919;43.236;21.590;2022-11-15T19:26:27;256.80;2252.80
55016;DHT22;40919;43.236;21.590;2022-11-15T19:28:55;256.90;2252.80
55016;DHT22;40919;43.236;21.590;2022-11-15T19:31:22;256.80;2252.80
55016;DHT22;40919;43.236;21.590;2022-11-15T19:33:49;256.90;2252.80
55016;DHT22;40919;43.236;21.590;2022-11-15T19:36:23;256.80;2252.80
55016;DHT22;40919;43.236;21.590;2022-11-15T19:38:53;256.70;2252.80
55016;DHT22;40919;43.236;21.590;2022-11-15T19:41:21;256.60;2252.80
55016;DHT22;40919;43.236;21.590;2022-11-15T19:43:47;256.70;2252.80
55016;DHT22;40919;43.236;21.590;2022-11-15T19:46:15;256.80;2252.80
55016;DHT22;40919;43.236;21.590;2022-11-15T19:48:42;256.50;2252.80
55016;DHT22;40919;43.236;21.590;2022-11-15T19:51:13;256.50;2252.80
55016;DHT22;40919;43.236;21.590;2022-11-15T19:53:39;256.50;2252.80
55016;DHT22;40919;43.236;21.590;2022-11-15T19:56:07;256.50;2252.80
55016;DHT22;40919;43.236;21.590;2022-11-15T19:58:34;256.50;2252.80
55016;DHT22;40919;43.236;21.590;2022-11-15T20:03:27;256.50;2252.80
55016;DHT22;40919;43.236;21.590;2022-11-15T20:06:06;256.50;2252.80
55016;DHT22;40919;43.236;21.590;2022-11-15T20:08:32;256.40;2252.80
55016;DHT22;40919;43.236;21.590;2022-11-15T20:10:59;256.50;2252.80
55016;DHT22;40919;43.236;21.590;2022-11-15T20:13:25;256.30;2252.80
55016;DHT22;40919;43.236;21.590;2022-11-15T20:15:51;256.40;2252.80
55016;DHT22;40919;43.236;21.590;2022-11-15T20:18:18;256.40;2252.80
55016;DHT22;40919;43.236;21.590;2022-11-15T20:20:44;256.70;2252.80
55016;DHT22;40919;43.236;21.590;2022-11-15T20:23:10;256.30;2252.80
55016;DHT22;40919;43.236;21.590;2022-11-15T20:25:36;256.20;2252.80
55016;DHT22;40919;43.236;21.590;2022-11-15T20:28:06;256.00;2252.80
55016;DHT22;40919;43.236;21.590;2022-11-15T20:30:32;256.20;2252.80
55016;DHT22;40919;43.236;21.590;2022-11-15T20:32:58;256.20;2252.80
55016;DHT22;40919;43.236;21.590;2022-11-15T20:35:24;256.10;2252.80
55016;DHT22;40919;43.236;21.590;2022-11-15T20:37:50;256.40;2252.80
55016;DHT22;40919;43.236;21.590;2022-11-15T20:40:16;256.00;2252.80
55016;DHT22;40919;43.236;21.590;2022-11-15T20:54:53;231.10;2252.80
55016;DHT22;40919;43.236;21.590;2022-11-15T20:57:18;231.00;2252.80
55016;DHT22;40919;43.236;21.590;2022-11-15T20:59:44;231.10;2252.80
55016;DHT22;40919;43.236;21.590;2022-11-15T21:02:14;231.00;2252.80
55016;DHT22;40919;43.236;21.590;2022-11-15T21:04:40;231.00;2252.80
55016;DHT22;40919;43.236;21.590;2022-11-15T21:07:06;231.00;2252.80
55016;DHT22;40919;43.236;21.590;2022-11-15T21:09:32;231.10;2252.80
55016;DHT22;40919;43.236;21.590;2022-11-15T21:12:16;231.10;2252.80
55016;DHT22;40919;43.236;21.590;2022-11-15T21:14:44;231.10;2252.80
55016;DHT22;40919;43.236;21.590;2022-11-15T21:17:11;231.10;2252.80
55016;DHT22;40919;43.236;21.590;2022-11-15T21:19:36;231.10;2252.80
55016;DHT22;40919;43.236;21.590;2022-11-15T21:22:04;231.00;2252.80
55016;DHT22;40919;43.236;21.590;2022-11-15T21:36:42;230.80;2252.80
55016;DHT22;40919;43.236;21.590;2022-11-15T21:39:08;230.70;2252.80
55016;DHT22;40919;43.236;21.590;2022-11-15T21:41:34;230.80;2252.80
55016;DHT22;40919;43.236;21.590;2022-11-15T21:44:02;230.70;2252.80